createdAt,value
2018-05-27T00:01:27.474Z,95396.56
2018-05-27T00:03:55.750Z,95402.22
2018-05-27T00:06:24.003Z,95400.91
2018-05-27T00:08:53.338Z,95401.67
2018-05-27T00:11:21.595Z,95398.56
2018-05-27T00:13:50.660Z,95397.06
2018-05-27T00:16:18.903Z,95396.83
2018-05-27T00:18:47.155Z,95401.62
2018-05-27T00:21:16.183Z,95401.41
2018-05-27T00:23:44.452Z,95407.70
2018-05-27T00:26:12.705Z,95409.91
2018-05-27T00:28:41.731Z,95411.31
2018-05-27T00:31:09.987Z,95401.63
2018-05-27T00:33:39.015Z,95395.67
2018-05-27T00:36:07.263Z,95397.32
2018-05-27T00:38:36.375Z,95403.48
2018-05-27T00:41:04.634Z,95405.28
2018-05-27T00:43:33.666Z,95399.32
2018-05-27T00:46:02.585Z,95402.94
2018-05-27T00:48:30.852Z,95398.62
2018-05-27T00:50:59.117Z,95398.57
2018-05-27T00:54:00.210Z,95390.83
2018-05-27T00:56:29.259Z,95389.49
2018-05-27T00:58:57.511Z,95384.00
2018-05-27T01:01:26.632Z,95378.12
2018-05-27T01:03:54.899Z,95373.19
2018-05-27T01:06:23.181Z,95371.46
2018-05-27T01:08:51.430Z,95370.02
2018-05-27T01:11:20.468Z,95369.45
2018-05-27T01:13:48.723Z,95363.42
2018-05-27T01:16:17.755Z,95366.73
2018-05-27T01:18:46.983Z,95361.00
2018-05-27T01:21:15.246Z,95363.78
2018-05-27T01:23:43.494Z,95356.42
2018-05-27T01:26:11.763Z,95349.09
2018-05-27T01:28:40.869Z,95346.39
2018-05-27T01:31:09.916Z,95344.30
2018-05-27T01:33:38.167Z,95343.69
2018-05-27T01:36:06.435Z,95341.84
2018-05-27T01:38:34.730Z,95338.73
2018-05-27T01:41:03.005Z,95334.98
2018-05-27T01:43:32.047Z,95337.58
2018-05-27T01:46:00.380Z,95326.30
2018-05-27T01:48:28.656Z,95331.42
2018-05-27T01:50:57.759Z,95330.29
2018-05-27T01:53:26.017Z,95325.04
2018-05-27T01:55:55.065Z,95322.19
2018-05-27T01:58:23.312Z,95319.19
2018-05-27T02:00:52.859Z,95308.75
2018-05-27T02:03:21.121Z,95305.70
2018-05-27T02:05:49.401Z,95305.89
2018-05-27T02:08:17.661Z,95304.36
2018-05-27T02:10:46.767Z,95299.73
2018-05-27T02:13:15.039Z,95299.25
2018-05-27T02:15:44.073Z,95298.87
2018-05-27T02:18:12.323Z,95290.34
2018-05-27T02:20:40.601Z,95290.98
2018-05-27T02:23:09.706Z,95290.20
2018-05-27T02:25:37.980Z,95290.20
2018-05-27T02:28:07.005Z,95295.33
2018-05-27T02:30:35.422Z,95292.64
2018-05-27T02:33:04.059Z,95296.17
2018-05-27T02:35:32.464Z,95296.77
2018-05-27T02:38:00.716Z,95294.84
2018-05-27T02:40:29.757Z,95299.59
2018-05-27T02:42:58.015Z,95290.25
2018-05-27T02:45:26.271Z,95282.68
2018-05-27T02:47:55.287Z,95278.74
2018-05-27T02:50:23.547Z,95276.84
2018-05-27T02:52:52.583Z,95277.06
2018-05-27T02:55:20.851Z,95287.88
2018-05-27T02:57:49.111Z,95283.37
2018-05-27T03:00:18.156Z,95278.56
2018-05-27T03:02:46.551Z,95281.52
2018-05-27T03:05:16.439Z,95279.97
2018-05-27T03:07:44.711Z,95281.52
2018-05-27T03:10:12.971Z,95277.98
2018-05-27T03:12:42.001Z,95273.98
2018-05-27T03:15:10.265Z,95274.24
2018-05-27T03:17:38.533Z,95280.70
2018-05-27T03:20:07.555Z,95279.00
2018-05-27T03:22:35.827Z,95273.98
2018-05-27T03:25:04.099Z,95274.73
2018-05-27T03:27:32.364Z,95278.27
2018-05-27T03:30:01.381Z,95271.38
2018-05-27T03:32:29.651Z,95271.11
2018-05-27T03:34:58.659Z,95273.16
2018-05-27T03:37:27.979Z,95271.10
2018-05-27T03:39:56.226Z,95270.13
2018-05-27T03:42:25.339Z,95277.98
2018-05-27T03:44:53.593Z,95280.67
2018-05-27T03:47:22.614Z,95274.03
2018-05-27T03:49:50.883Z,95270.69
2018-05-27T03:52:19.907Z,95275.19
2018-05-27T03:54:48.166Z,95271.77
2018-05-27T03:57:17.195Z,95282.23
2018-05-27T03:59:45.459Z,95278.63
2018-05-27T04:02:13.832Z,95280.63
2018-05-27T04:05:03.296Z,95277.24
2018-05-27T04:07:51.426Z,95281.66
2018-05-27T04:10:20.452Z,95279.83
2018-05-27T04:12:48.733Z,95280.77
2018-05-27T04:15:16.993Z,95283.26
2018-05-27T04:17:45.252Z,95282.64
2018-05-27T04:20:14.266Z,95278.70
2018-05-27T04:22:43.290Z,95284.13
2018-05-27T04:25:11.550Z,95280.35
2018-05-27T04:27:39.815Z,95285.31
2018-05-27T04:30:08.847Z,95278.27
2018-05-27T04:32:37.121Z,95276.08
2018-05-27T04:35:05.369Z,95280.63
2018-05-27T04:37:34.647Z,95284.74
2018-05-27T04:40:03.692Z,95295.30
2018-05-27T04:42:31.968Z,95286.84
2018-05-27T04:45:01.003Z,95302.31
2018-05-27T04:47:29.266Z,95294.64
2018-05-27T04:49:57.527Z,95295.34
2018-05-27T04:52:26.569Z,95288.38
2018-05-27T04:54:54.827Z,95285.50
2018-05-27T04:57:23.093Z,95278.69
2018-05-27T04:59:51.347Z,95278.59
2018-05-27T05:02:20.463Z,95274.48
2018-05-27T05:04:49.489Z,95270.47
2018-05-27T05:07:18.692Z,95268.05
2018-05-27T05:09:46.960Z,95261.62
2018-05-27T05:12:15.236Z,95260.95
2018-05-27T05:14:43.487Z,95262.63
2018-05-27T05:17:12.503Z,95264.77
2018-05-27T05:19:40.770Z,95261.55
2018-05-27T05:22:09.806Z,95265.21
2018-05-27T05:24:38.080Z,95262.77
2018-05-27T05:27:06.356Z,95262.91
2018-05-27T05:29:34.624Z,95268.88
2018-05-27T05:32:03.111Z,95270.73
2018-05-27T05:34:31.388Z,95271.59
2018-05-27T05:37:00.410Z,95277.25
2018-05-27T05:39:29.503Z,95269.30
2018-05-27T05:41:57.770Z,95278.77
2018-05-27T05:44:26.797Z,95277.23
2018-05-27T05:46:55.042Z,95274.81
2018-05-27T05:49:24.062Z,95276.36
2018-05-27T05:51:52.319Z,95280.00
2018-05-27T05:54:21.360Z,95282.55
2018-05-27T05:56:49.620Z,95277.73
2018-05-27T05:59:17.875Z,95278.74
2018-05-27T06:01:46.135Z,95278.89
2018-05-27T06:04:15.173Z,95284.23
2018-05-27T06:06:43.424Z,95283.51
2018-05-27T06:09:12.467Z,95283.22
2018-05-27T06:11:42.349Z,95289.28
2018-05-27T06:14:11.388Z,95284.58
2018-05-27T06:16:39.674Z,95287.90
2018-05-27T06:19:07.930Z,95289.31
2018-05-27T06:21:36.195Z,95293.73
2018-05-27T06:24:04.465Z,95293.15
2018-05-27T06:26:33.487Z,95293.02
2018-05-27T06:29:01.764Z,95300.33
2018-05-27T06:31:30.012Z,95300.11
2018-05-27T06:33:59.047Z,95304.39
2018-05-27T06:36:27.315Z,95306.83
2018-05-27T06:38:55.582Z,95307.63
2018-05-27T06:41:24.611Z,95311.37
2018-05-27T06:43:54.938Z,95313.61
2018-05-27T06:46:23.214Z,95307.11
2018-05-27T06:48:51.475Z,95310.73
2018-05-27T06:51:20.541Z,95312.03
2018-05-27T06:53:48.767Z,95316.90
2018-05-27T06:56:17.033Z,95310.59
2018-05-27T06:58:46.060Z,95312.06
2018-05-27T07:01:14.314Z,95310.58
2018-05-27T07:03:42.590Z,95305.39
2018-05-27T07:06:11.698Z,95300.99
2018-05-27T07:08:39.953Z,95289.80
2018-05-27T07:11:08.978Z,95289.99
2018-05-27T07:13:37.234Z,95297.23
2018-05-27T07:16:06.271Z,95301.74
2018-05-27T07:18:34.531Z,95299.02
2018-05-27T07:21:03.631Z,95294.83
2018-05-27T07:23:31.901Z,95297.42
2018-05-27T07:26:01.764Z,95283.84
2018-05-27T07:28:30.024Z,95292.09
2018-05-27T07:30:58.287Z,95293.92
2018-05-27T07:33:27.399Z,95293.98
2018-05-27T07:35:55.668Z,95299.22
2018-05-27T07:38:26.007Z,95292.66
2018-05-27T07:40:54.274Z,95293.05
2018-05-27T07:43:23.291Z,95298.02
2018-05-27T07:45:51.554Z,95304.38
2018-05-27T07:48:19.810Z,95293.98
2018-05-27T07:50:48.847Z,95298.84
2018-05-27T07:53:17.536Z,95298.97
2018-05-27T07:55:45.802Z,95297.38
2018-05-27T07:58:14.130Z,95299.02
2018-05-27T08:00:43.834Z,95297.67
2018-05-27T08:03:12.183Z,95299.97
2018-05-27T08:05:40.460Z,95305.23
2018-05-27T08:08:09.479Z,95302.05
2018-05-27T08:10:39.071Z,95302.94
2018-05-27T08:13:07.330Z,95308.33
2018-05-27T08:15:36.476Z,95306.55
2018-05-27T08:18:04.734Z,95306.05
2018-05-27T08:20:32.986Z,95301.00
2018-05-27T08:23:02.028Z,95299.61
2018-05-27T08:25:30.291Z,95301.20
2018-05-27T08:27:59.311Z,95304.06
2018-05-27T08:30:27.588Z,95306.27
2018-05-27T08:32:56.563Z,95293.57
2018-05-27T08:35:24.835Z,95302.02
2018-05-27T08:37:53.860Z,95296.38
2018-05-27T08:40:22.136Z,95292.36
2018-05-27T08:42:53.263Z,95303.66
2018-05-27T08:45:22.290Z,95292.88
2018-05-27T08:47:50.547Z,95291.37
2018-05-27T08:50:18.839Z,95290.55
2018-05-27T08:52:47.099Z,95293.38
2018-05-27T08:55:17.375Z,95294.11
2018-05-27T08:57:45.636Z,95290.14
2018-05-27T09:00:13.970Z,95287.59
2018-05-27T09:02:42.994Z,95281.15
2018-05-27T09:05:12.027Z,95289.33
2018-05-27T09:07:40.284Z,95281.49
2018-05-27T09:10:08.539Z,95281.14
2018-05-27T09:12:37.576Z,95280.99
2018-05-27T09:15:05.845Z,95282.72
2018-05-27T09:17:34.116Z,95282.75
2018-05-27T09:20:02.366Z,95281.97
2018-05-27T09:22:31.408Z,95288.70
2018-05-27T09:24:59.690Z,95273.61
2018-05-27T09:27:27.950Z,95284.41
2018-05-27T09:29:56.791Z,95278.52
2018-05-27T09:32:25.060Z,95273.94
2018-05-27T09:34:53.326Z,95272.28
2018-05-27T09:37:21.587Z,95272.50
2018-05-27T09:39:49.852Z,95261.50
2018-05-27T09:42:18.887Z,95262.21
2018-05-27T09:44:47.139Z,95266.66
2018-05-27T09:47:16.166Z,95263.29
2018-05-27T09:49:44.426Z,95265.20
2018-05-27T09:52:13.459Z,95265.45
2018-05-27T09:54:41.712Z,95257.19
2018-05-27T09:57:10.198Z,95257.69
2018-05-27T09:59:39.046Z,95270.01
2018-05-27T10:02:08.116Z,95261.16
2018-05-27T10:04:36.476Z,95265.11
2018-05-27T10:07:04.739Z,95262.05
2018-05-27T10:09:32.995Z,95260.52
2018-05-27T10:12:02.037Z,95259.95
2018-05-27T10:14:30.303Z,95259.72
2018-05-27T10:16:58.566Z,95258.66
2018-05-27T10:19:27.604Z,95265.11
2018-05-27T10:21:56.115Z,95254.53
2018-05-27T10:24:24.374Z,95256.30
2018-05-27T10:26:52.623Z,95259.91
2018-05-27T10:29:21.059Z,95253.97
2018-05-27T10:31:49.336Z,95245.53
2018-05-27T10:34:17.595Z,95247.09
2018-05-27T10:36:45.871Z,95249.44
2018-05-27T10:39:14.134Z,95246.34
2018-05-27T10:41:43.159Z,95239.30
2018-05-27T10:44:11.407Z,95244.02
2018-05-27T10:46:39.675Z,95236.21
2018-05-27T10:49:08.704Z,95237.56
2018-05-27T10:51:36.969Z,95235.35
2018-05-27T10:54:05.235Z,95233.88
2018-05-27T10:56:35.183Z,95231.25
2018-05-27T10:59:03.432Z,95231.05
2018-05-27T11:01:34.495Z,95227.50
2018-05-27T11:04:02.748Z,95221.86
2018-05-27T11:06:31.789Z,95218.75
2018-05-27T11:09:00.071Z,95220.00
2018-05-27T11:11:28.331Z,95220.63
2018-05-27T11:13:57.359Z,95211.50
2018-05-27T11:16:25.625Z,95216.02
2018-05-27T11:18:53.922Z,95207.13
2018-05-27T11:21:22.163Z,95208.23
2018-05-27T11:23:51.217Z,95203.36
2018-05-27T11:26:19.451Z,95203.78
2018-05-27T11:28:47.715Z,95201.73
2018-05-27T11:31:16.830Z,95200.24
2018-05-27T11:33:45.571Z,95194.05
2018-05-27T11:36:13.824Z,95190.85
2018-05-27T11:38:42.094Z,95186.74
2018-05-27T11:41:10.357Z,95189.55
2018-05-27T11:43:39.394Z,95181.80
2018-05-27T11:46:07.650Z,95178.47
2018-05-27T11:48:35.964Z,95179.14
2018-05-27T11:51:04.940Z,95179.02
2018-05-27T11:53:33.214Z,95178.34
2018-05-27T11:56:01.469Z,95172.72
2018-05-27T11:58:30.503Z,95171.97
2018-05-27T12:00:58.756Z,95166.11
2018-05-27T12:03:27.794Z,95147.60
2018-05-27T12:05:56.045Z,95156.70
2018-05-27T12:08:24.311Z,95146.89
2018-05-27T12:10:53.567Z,95141.11
2018-05-27T12:13:21.829Z,95141.73
2018-05-27T12:15:50.078Z,95140.35
2018-05-27T12:18:18.351Z,95132.38
2018-05-27T12:20:47.379Z,95128.72
2018-05-27T12:23:15.638Z,95135.64
2018-05-27T12:25:43.920Z,95129.49
2018-05-27T12:28:12.190Z,95137.52
2018-05-27T12:30:41.211Z,95139.69
2018-05-27T12:33:09.475Z,95130.84
2018-05-27T12:35:38.492Z,95140.91
2018-05-27T12:38:06.755Z,95147.66
2018-05-27T12:40:35.024Z,95152.16
2018-05-27T12:43:04.055Z,95153.68
2018-05-27T12:45:32.314Z,95148.79
2018-05-27T12:48:01.243Z,95154.02
2018-05-27T12:50:29.594Z,95156.69
2018-05-27T12:52:57.858Z,95154.61
2018-05-27T12:55:26.886Z,95149.50
2018-05-27T12:57:55.153Z,95149.74
2018-05-27T13:00:23.416Z,95150.31
2018-05-27T13:02:52.451Z,95151.17
2018-05-27T13:05:20.699Z,95147.25
2018-05-27T13:07:49.715Z,95137.41
2018-05-27T13:10:17.988Z,95132.93
2018-05-27T13:12:46.243Z,95126.38
2018-05-27T13:15:15.282Z,95124.98
2018-05-27T13:17:43.553Z,95121.64
2018-05-27T13:20:11.815Z,95118.09
2018-05-27T13:22:40.846Z,95120.50
2018-05-27T13:25:09.116Z,95117.36
2018-05-27T13:27:37.363Z,95117.77
2018-05-27T13:30:05.709Z,95114.78
2018-05-27T13:32:33.928Z,95123.67
2018-05-27T13:35:02.963Z,95114.75
2018-05-27T13:37:31.215Z,95121.50
2018-05-27T13:40:00.247Z,95129.03
2018-05-27T13:42:28.505Z,95128.01
2018-05-27T13:44:56.808Z,95133.75
2018-05-27T13:47:25.791Z,95134.77
2018-05-27T13:49:54.067Z,95132.38
2018-05-27T13:52:22.337Z,95128.87
2018-05-27T13:54:51.359Z,95126.62
2018-05-27T13:57:19.618Z,95132.19
2018-05-27T13:59:47.899Z,95136.19
2018-05-27T14:02:17.608Z,95129.80
2018-05-27T14:04:46.769Z,95125.20
2018-05-27T14:07:14.966Z,95132.11
2018-05-27T14:09:44.009Z,95129.06
2018-05-27T14:12:12.263Z,95140.30
2018-05-27T14:14:41.291Z,95134.14
2018-05-27T14:17:09.595Z,95131.89
2018-05-27T14:19:38.574Z,95136.45
2018-05-27T14:22:06.834Z,95134.81
2018-05-27T14:24:35.107Z,95138.95
2018-05-27T14:27:03.363Z,95144.50
2018-05-27T14:29:31.633Z,95141.84
2018-05-27T14:31:59.891Z,95140.70
2018-05-27T14:34:28.221Z,95145.05
2018-05-27T14:36:57.248Z,95147.55
2018-05-27T14:39:25.514Z,95145.55
2018-05-27T14:41:53.762Z,95143.61
2018-05-27T14:44:22.811Z,95149.41
2018-05-27T14:46:51.061Z,95144.16
2018-05-27T14:49:20.092Z,95147.52
2018-05-27T14:51:48.343Z,95139.80
2018-05-27T14:54:16.632Z,95143.30
2018-05-27T14:56:45.647Z,95139.95
2018-05-27T14:59:13.920Z,95139.54
2018-05-27T15:01:42.174Z,95138.58
2018-05-27T15:04:11.229Z,95125.67
2018-05-27T15:06:40.174Z,95129.42
2018-05-27T15:09:09.211Z,95125.27
2018-05-27T15:11:37.467Z,95121.33
2018-05-27T15:14:06.023Z,95115.16
2018-05-27T15:16:34.289Z,95120.02
2018-05-27T15:19:03.323Z,95113.27
2018-05-27T15:21:31.587Z,95106.80
2018-05-27T15:24:00.603Z,95101.42
2018-05-27T15:26:28.880Z,95098.43
2018-05-27T15:28:57.915Z,95093.86
2018-05-27T15:31:26.174Z,95090.63
2018-05-27T15:33:54.455Z,95089.68
2018-05-27T15:36:23.460Z,95086.73
2018-05-27T15:38:53.879Z,95085.27
2018-05-27T15:41:22.964Z,95077.75
2018-05-27T15:43:51.987Z,95077.73
2018-05-27T15:46:20.251Z,95078.42
2018-05-27T15:48:48.498Z,95070.98
2018-05-27T15:51:17.532Z,95070.06
2018-05-27T15:53:45.809Z,95073.26
2018-05-27T15:56:14.814Z,95074.17
2018-05-27T15:58:43.082Z,95071.88
2018-05-27T16:01:11.350Z,95067.81
2018-05-27T16:03:40.373Z,95072.34
2018-05-27T16:06:08.642Z,95073.02
2018-05-27T16:08:36.899Z,95081.98
2018-05-27T16:11:05.935Z,95089.02
2018-05-27T16:13:34.187Z,95095.50
2018-05-27T16:16:03.212Z,95088.48
2018-05-27T16:18:31.489Z,95092.80
2018-05-27T16:20:59.766Z,95089.13
2018-05-27T16:23:28.011Z,95085.87
2018-05-27T16:25:57.059Z,95088.27
2018-05-27T16:28:25.327Z,95082.83
2018-05-27T16:30:53.597Z,95077.08
2018-05-27T16:33:21.851Z,95078.92
2018-05-27T16:35:50.891Z,95072.22
2018-05-27T16:38:19.155Z,95072.86
2018-05-27T16:40:47.488Z,95070.02
2018-05-27T16:43:16.332Z,95076.67
2018-05-27T16:45:44.632Z,95077.87
2018-05-27T16:48:12.897Z,95084.30
2018-05-27T16:50:42.197Z,95079.98
2018-05-27T16:53:10.479Z,95081.05
2018-05-27T16:55:38.747Z,95083.59
2018-05-27T16:58:07.770Z,95083.08
2018-05-27T17:00:36.034Z,95081.05
2018-05-27T17:03:05.060Z,95080.77
2018-05-27T17:05:33.328Z,95081.52
2018-05-27T17:08:01.596Z,95077.52
2018-05-27T17:10:29.854Z,95072.82
2018-05-27T17:12:58.951Z,95080.08
2018-05-27T17:15:29.662Z,95075.89
2018-05-27T17:17:57.947Z,95071.44
2018-05-27T17:20:26.232Z,95070.05
2018-05-27T17:22:54.523Z,95064.45
2018-05-27T17:25:22.782Z,95059.95
2018-05-27T17:27:51.035Z,95063.98
2018-05-27T17:30:19.290Z,95066.63
2018-05-27T17:32:48.394Z,95057.28
2018-05-27T17:35:16.652Z,95052.62
2018-05-27T17:37:45.691Z,95046.84
2018-05-27T17:40:13.940Z,95055.30
2018-05-27T17:42:42.966Z,95049.64
2018-05-27T17:45:11.219Z,95050.63
2018-05-27T17:47:41.692Z,95053.15
2018-05-27T17:50:09.937Z,95044.45
2018-05-27T17:52:39.041Z,95043.60
2018-05-27T17:55:07.291Z,95042.69
2018-05-27T17:57:36.327Z,95043.16
2018-05-27T18:00:04.602Z,95049.73
2018-05-27T18:02:32.864Z,95052.76
2018-05-27T18:05:01.879Z,95058.08
2018-05-27T18:07:30.137Z,95064.38
2018-05-27T18:09:59.559Z,95064.24
2018-05-27T18:12:27.826Z,95073.34
2018-05-27T18:14:56.857Z,95073.86
2018-05-27T18:17:25.115Z,95072.32
2018-05-27T18:19:54.222Z,95082.15
2018-05-27T18:22:22.497Z,95086.33
2018-05-27T18:24:51.599Z,95088.17
2018-05-27T18:27:20.632Z,95094.45
2018-05-27T18:29:48.895Z,95104.83
2018-05-27T18:32:17.159Z,95104.42
2018-05-27T18:34:45.415Z,95109.62
2018-05-27T18:37:15.195Z,95111.77
2018-05-27T18:39:43.553Z,95111.44
2018-05-27T18:42:11.820Z,95115.37
2018-05-27T18:44:40.072Z,95120.43
2018-05-27T18:47:09.099Z,95109.15
2018-05-27T18:49:37.356Z,95107.53
2018-05-27T18:52:05.883Z,95108.36
2018-05-27T18:54:34.139Z,95117.09
2018-05-27T18:57:02.403Z,95116.88
2018-05-27T18:59:31.508Z,95116.00
2018-05-27T19:02:00.541Z,95120.94
2018-05-27T19:04:28.792Z,95121.34
2018-05-27T19:06:57.822Z,95113.58
2018-05-27T19:09:26.076Z,95116.62
2018-05-27T19:11:54.347Z,95119.41
2018-05-27T19:14:23.293Z,95122.14
2018-05-27T19:16:51.563Z,95121.09
2018-05-27T19:19:20.633Z,95117.13
2018-05-27T19:21:48.903Z,95113.59
2018-05-27T19:24:18.014Z,95111.05
2018-05-27T19:26:46.548Z,95119.11
2018-05-27T19:29:14.815Z,95114.16
2018-05-27T19:31:43.068Z,95113.27
2018-05-27T19:34:11.338Z,95111.03
2018-05-27T19:36:39.599Z,95109.94
2018-05-27T19:39:09.354Z,95110.25
2018-05-27T19:41:37.618Z,95105.38
2018-05-27T19:44:05.886Z,95101.45
2018-05-27T19:46:34.919Z,95103.97
2018-05-27T19:49:03.195Z,95104.44
2018-05-27T19:51:32.271Z,95098.40
2018-05-27T19:54:01.376Z,95101.09
2018-05-27T19:56:29.627Z,95109.82
2018-05-27T19:58:59.394Z,95102.00
2018-05-27T20:01:28.163Z,95106.95
2018-05-27T20:03:56.438Z,95103.32
2018-05-27T20:06:25.455Z,95097.12
2018-05-27T20:08:53.720Z,95089.99
2018-05-27T20:11:21.974Z,95089.10
2018-05-27T20:13:51.015Z,95088.44
2018-05-27T20:16:19.275Z,95084.98
2018-05-27T20:18:48.904Z,95087.06
2018-05-27T20:21:17.154Z,95090.95
2018-05-27T20:23:46.184Z,95088.68
2018-05-27T20:26:14.431Z,95092.63
2018-05-27T20:28:43.466Z,95093.79
2018-05-27T20:31:11.722Z,95090.97
2018-05-27T20:33:40.015Z,95088.32
2018-05-27T20:36:08.258Z,95088.14
2018-05-27T20:38:37.300Z,95089.75
2018-05-27T20:41:05.556Z,95095.19
2018-05-27T20:43:34.671Z,95096.83
2018-05-27T20:46:02.919Z,95098.05
2018-05-27T20:48:31.947Z,95101.92
2018-05-27T20:51:00.211Z,95099.89
2018-05-27T20:53:29.243Z,95105.79
2018-05-27T20:55:57.502Z,95100.30
2018-05-27T20:58:25.771Z,95100.11
2018-05-27T21:00:54.801Z,95102.63
2018-05-27T21:03:23.074Z,95108.45
2018-05-27T21:05:51.331Z,95108.46
2018-05-27T21:08:20.366Z,95111.50
2018-05-27T21:10:48.616Z,95115.48
2018-05-27T21:13:17.650Z,95116.39
2018-05-27T21:15:45.909Z,95122.17
2018-05-27T21:18:14.180Z,95119.74
2018-05-27T21:20:42.430Z,95122.10
2018-05-27T21:23:11.939Z,95115.05
2018-05-27T21:25:40.963Z,95120.67
2018-05-27T21:28:09.987Z,95116.87
2018-05-27T21:30:38.347Z,95119.00
2018-05-27T21:33:07.365Z,95120.67
2018-05-27T21:35:35.641Z,95118.84
2018-05-27T21:38:03.898Z,95123.54
2018-05-27T21:40:32.940Z,95125.91
2018-05-27T21:43:01.293Z,95121.20
2018-05-27T21:45:29.547Z,95121.47
2018-05-27T21:47:58.574Z,95114.30
2018-05-27T21:50:26.826Z,95115.50
2018-05-27T21:52:55.859Z,95119.70
2018-05-27T21:55:24.119Z,95121.27
2018-05-27T21:57:52.383Z,95115.37
2018-05-27T22:00:21.402Z,95109.98
2018-05-27T22:02:49.667Z,95112.08
2018-05-27T22:05:18.689Z,95111.25
2018-05-27T22:07:46.947Z,95109.44
2018-05-27T22:10:15.982Z,95119.83
2018-05-27T22:12:44.230Z,95108.67
2018-05-27T22:15:12.504Z,95115.05
2018-05-27T22:17:41.535Z,95120.94
2018-05-27T22:20:09.804Z,95113.78
2018-05-27T22:22:38.065Z,95115.46
2018-05-27T22:25:07.257Z,95119.39
2018-05-27T22:27:35.976Z,95124.20
2018-05-27T22:30:04.234Z,95126.69
2018-05-27T22:32:33.650Z,95135.61
2018-05-27T22:35:02.669Z,95141.30
2018-05-27T22:37:30.928Z,95141.70
2018-05-27T22:39:59.955Z,95143.97
2018-05-27T22:42:28.227Z,95132.55
2018-05-27T22:44:56.487Z,95136.51
2018-05-27T22:47:25.591Z,95131.94
2018-05-27T22:49:53.859Z,95121.84
2018-05-27T22:52:22.882Z,95124.58
2018-05-27T22:54:51.156Z,95117.66
2018-05-27T22:57:19.401Z,95110.44
2018-05-27T22:59:48.440Z,95107.32
2018-05-27T23:02:17.219Z,95108.45
2018-05-27T23:04:45.488Z,95109.29
2018-05-27T23:07:14.515Z,95104.93
2018-05-27T23:09:42.775Z,95095.13
2018-05-27T23:12:11.799Z,95099.08
2018-05-27T23:14:40.072Z,95099.63
2018-05-27T23:17:08.327Z,95099.22
2018-05-27T23:19:37.356Z,95100.52
2018-05-27T23:22:06.218Z,95103.06
2018-05-27T23:24:35.251Z,95102.07
2018-05-27T23:27:03.502Z,95105.98
2018-05-27T23:29:31.786Z,95101.28
2018-05-27T23:32:00.056Z,95104.78
2018-05-27T23:34:29.087Z,95110.47
2018-05-27T23:36:57.345Z,95106.88
2018-05-27T23:39:25.665Z,95112.77
2018-05-27T23:41:53.912Z,95109.71
2018-05-27T23:44:22.184Z,95102.42
2018-05-27T23:46:51.206Z,95098.98
2018-05-27T23:49:19.467Z,95101.17
2018-05-27T23:51:47.737Z,95099.39
2018-05-27T23:54:18.071Z,95100.01
2018-05-27T23:56:47.104Z,95091.67
2018-05-27T23:59:15.366Z,95093.16
